Kewanee, IL (61443)

9:04 AM CDT on September 04, 2015 (GMT -0500)
Rockwell St. | | Change Station
CLOSE
Current Station
Personal Weather Station
Location: Kewanee, IL
Elevation: 858 ft
Nearby Weather Stations

Elev 858 ft 41.24 °N, 89.93 °W | Updated 37 seconds ago

Clear
Clear
84.2 °F
Feels Like 90 °F
N
0.0
Wind Variable Wind from SSW
Gusts 3.2 mph

Today
High -- | Low -- °F
--% Chance of Precip.
Yesterday
High -- | Low -- °F
Precip. -- in
6:28 AM 7:27 PM
Waning Gibbous, 59% visible
Pressure 30.01 in
Visibility 10.0 miles
Clouds Scattered Clouds 12000 ft
Heat Index 90 °F
Dew Point 72 °F
Humidity 67%
Rainfall 0.00 in
Snow Depth Not available.
UV 2 out of 12
Pollen 8.80 out of 12
Air Quality Not available.
Flu Activity Not available.
METAR KGBG 041355Z AUTO 00000KT 10SM SCT120 26/22 A3001 RMK AO2 T02570217
Pressure 30.01 in
Visibility 10.0 miles
Clouds Scattered Clouds 12000 ft
Heat Index 90 °F
Dew Point 72 °F
Humidity 67%
Rainfall 0.00 in
Snow Depth Not available.
UV 2 out of 12
Pollen 8.80 out of 12
Air Quality Not available.
Flu Activity Not available.
METAR KGBG 041355Z AUTO 00000KT 10SM SCT120 26/22 A3001 RMK AO2 T02570217

10-Day Weather Forecast

×

Almanac

Astronomy

Sep. 04, 2015 Rise Set
Actual Time
Civil Twilight
Nautical Twilight
Astronomical Twilight
Moon
Length of Visible Light
Length of Day
Tomorrow will be .
, % of the Moon is Illuminated

Today's Extremes

State Highs State Lows

Community

WunderPhotos

Upload Photos

1,852,182 photos uploaded!

WunderBlogs® & News

Nearby

Air Quality

  Air Quality AQ Index Pollutant
Not available.

Snow Depth

Station Depth Elevation

Earthquake Activity

City Distance Mag. Time & Date
Minimum magnitude displayed is 2.5.

Coastal Water Temperatures

Place Temperature

Stations

Nearby Weather Stations

Station Location Temp. Windchill Dew Point Humidity Wind Precip. Elev Updated Type